Marshfield, United Kingdom
Current Conditions -  °F | °C
As of 10:50 PM on Friday 31 Oct 2014 (Local Time) from EGFF Reporting Station
Light Rain Light Rain  
Wind Chill: 59°   Ceiling: 1800
Heat Index: 59°   Visibility: 6mi
Dew Point: 55°   Wind: 13mph
Humidity: 88%   Direction: 250°WSW
Pressure: 29.88"   Gusts: NA
Location:  51.53°N, 3.07°W
Report Text: EGFF 312250Z AUTO 25011KT 9999 -RA BKN018 15/13 Q1012
Loading
Personal Weather Stations






























Interactive Weather Map
Tropical Storm Tracking
New forecast layout! Learn more

10-Day Weather Forecast

Advertisements
Track Severe Weather on mobile